Terminal Aerodrome Forecast
Issued by NWS

Home | Current Version | Previous Version | Text Only | Print | Product List | Glossary On
Versions: 1 2 3 4 5 6 7 8 9 10 11 12 13 14 15 16 17 18 19 20 21
707
FTUS43 KLSX 180954 AAA
TAFSUS
TAF AMD
KSUS 180954Z 1810/1906 22006KT P6SM VCSH BKN100
     FM181200 22006KT P6SM BKN100
     FM190000 22004KT P6SM SCT150=

USA.gov is the U.S. government's official web portal to all federal, state and local government web resources and services.